Time;durP1;ratioP1;P1;durP2;ratioP2;P2;SDS_P1;SDS_P2;PMS_P1;PMS_P2;Temp;Humidity;BMP_temperature;BMP_pressure;BME280_temperature;BME280_humidity;BME280_pressure;Samples;Min_cycle;Max_cycle;Signal;HPM_P1;HPM_P2
2023/08/11 00:00:04;;;;;;;3.20;2.27;;;14.20;99.90;14.30;101109.00;;;;4986668;27;87711;-66
2023/08/11 00:02:30;;;;;;;2.27;2.07;;;14.20;99.90;14.30;101104.00;;;;4987450;27;87927;-64
2023/08/11 00:04:57;;;;;;;1.80;1.70;;;14.20;99.90;14.30;101104.00;;;;4985630;27;110546;-65
2023/08/11 00:07:22;;;;;;;2.67;2.08;;;14.20;99.90;14.30;101102.00;;;;4986502;27;88947;-64
2023/08/11 00:09:48;;;;;;;2.88;2.30;;;14.20;99.90;14.30;101107.00;;;;4986965;27;111355;-65
2023/08/11 00:12:13;;;;;;;2.83;2.58;;;14.20;99.90;14.30;101102.00;;;;4984302;27;116786;-65
2023/08/11 00:14:39;;;;;;;2.25;2.00;;;14.30;99.90;14.30;101102.00;;;;4987620;27;108547;-64
2023/08/11 00:17:05;;;;;;;2.13;1.98;;;14.30;99.90;14.30;101104.00;;;;4987077;27;109001;-64
2023/08/11 00:19:31;;;;;;;2.03;1.85;;;14.20;99.90;14.30;101104.00;;;;4984402;27;118157;-64
2023/08/11 00:22:02;;;;;;;2.30;1.88;;;14.20;99.90;14.30;101099.00;;;;4984872;27;117653;-63
2023/08/11 00:24:28;;;;;;;3.50;1.90;;;14.30;99.90;14.30;101099.00;;;;4985453;27;97654;-63
2023/08/11 00:26:54;;;;;;;2.08;1.80;;;14.30;99.90;14.30;101100.00;;;;4989089;27;87748;-63
2023/08/11 00:29:21;;;;;;;2.03;1.83;;;14.30;99.90;14.40;101108.00;;;;4984558;27;104960;-63
2023/08/11 00:31:46;;;;;;;2.05;1.60;;;14.30;99.90;14.40;101101.00;;;;4987960;27;92545;-62
2023/08/11 00:34:12;;;;;;;2.40;2.20;;;14.30;99.90;14.40;101106.00;;;;4984957;27;88006;-65
2023/08/11 00:36:38;;;;;;;1.77;1.63;;;14.20;99.90;14.40;101106.00;;;;4992172;27;87898;-64
2023/08/11 00:39:04;;;;;;;2.30;1.45;;;14.30;99.90;14.40;101107.00;;;;4986915;27;118434;-64
2023/08/11 00:41:30;;;;;;;2.30;1.77;;;14.40;99.90;14.50;101106.00;;;;4985390;27;116992;-64
2023/08/11 00:43:56;;;;;;;2.17;1.80;;;14.40;99.90;14.50;101111.00;;;;4986148;27;88009;-64
2023/08/11 00:46:23;;;;;;;2.10;1.90;;;14.40;99.90;14.50;101102.00;;;;4983387;27;90759;-64
2023/08/11 00:48:51;;;;;;;2.10;1.93;;;14.40;99.90;14.50;101085.00;;;;4986004;27;116510;-64
2023/08/11 00:51:19;;;;;;;2.53;2.33;;;14.40;99.90;14.40;101107.00;;;;4985860;27;90279;-64
2023/08/11 00:53:49;;;;;;;2.20;2.00;;;14.40;99.90;14.40;101089.00;;;;4989264;27;91187;-64
2023/08/11 00:56:16;;;;;;;2.20;1.90;;;14.40;99.90;14.40;101091.00;;;;4991938;27;88962;-65
2023/08/11 00:58:43;;;;;;;1.57;1.47;;;14.30;99.90;14.30;101095.00;;;;4992667;27;88719;-64
2023/08/11 01:01:09;;;;;;;2.28;2.08;;;14.30;99.90;14.30;101089.00;;;;4992235;27;88926;-64
2023/08/11 01:03:35;;;;;;;3.45;1.83;;;14.50;99.90;14.30;101087.00;;;;4986649;27;87819;-64
2023/08/11 01:06:22;;;;;;;2.35;1.83;;;14.30;99.90;14.20;101082.00;;;;4985433;27;101189;-63
2023/08/11 01:09:31;;;;;;;3.13;1.98;;;14.30;99.90;14.20;101088.00;;;;4989259;27;88349;-63
2023/08/11 01:12:17;;;;;;;2.30;1.73;;;14.20;99.90;14.10;101077.00;;;;4985948;27;87859;-63
2023/08/11 01:15:19;;;;;;;2.57;1.67;;;14.10;99.90;14.00;101078.00;;;;4986515;27;104339;-63
2023/08/11 01:17:48;;;;;;;2.75;1.63;;;14.10;99.90;14.00;101081.00;;;;4985227;27;87676;-64
2023/08/11 01:20:16;;;;;;;2.67;2.10;;;14.00;99.90;14.00;101086.00;;;;4981044;27;99036;-64
2023/08/11 01:22:46;;;;;;;4.90;2.20;;;14.00;99.90;14.00;101088.00;;;;4990365;27;89062;-64
2023/08/11 01:25:13;;;;;;;1.93;1.33;;;14.00;99.90;13.90;101089.00;;;;4986157;27;88110;-64
2023/08/11 01:27:58;;;;;;;1.30;1.20;;;13.90;99.90;13.80;101092.00;;;;4989163;27;87901;-64
2023/08/11 01:30:25;;;;;;;2.30;2.10;;;13.90;99.90;13.80;101091.00;;;;4986434;27;88131;-64
2023/08/11 01:32:51;;;;;;;1.88;1.60;;;13.80;99.90;13.80;101087.00;;;;4982526;27;87823;-64
2023/08/11 01:35:21;;;;;;;1.60;1.50;;;13.80;99.90;13.70;101085.00;;;;4986428;27;87984;-64
2023/08/11 01:37:47;;;;;;;2.35;1.92;;;13.80;99.90;13.70;101082.00;;;;4986579;27;88144;-64
2023/08/11 01:40:14;;;;;;;3.28;1.70;;;13.70;99.90;13.60;101081.00;;;;4985114;27;87437;-63
2023/08/11 01:42:45;;;;;;;2.47;2.13;;;13.70;99.90;13.60;101080.00;;;;4990945;27;88058;-65
2023/08/11 01:45:13;;;;;;;3.47;2.40;;;13.60;99.90;13.50;101087.00;;;;4992893;28;87967;-63
2023/08/11 01:47:43;;;;;;;3.70;1.97;;;13.60;99.90;13.50;101087.00;;;;4990243;28;88842;-64
2023/08/11 01:50:10;;;;;;;3.77;2.37;;;13.50;99.90;13.40;101084.00;;;;4990717;27;89185;-65
2023/08/11 01:52:40;;;;;;;3.93;2.07;;;13.40;99.90;13.40;101086.00;;;;4988989;27;108902;-64
2023/08/11 01:55:10;;;;;;;2.93;2.67;;;13.40;99.90;13.30;101085.00;;;;4990100;27;87817;-64
2023/08/11 01:57:37;;;;;;;3.17;2.00;;;13.40;99.90;13.30;101082.00;;;;4989647;27;87949;-64
2023/08/11 02:00:07;;;;;;;3.23;2.50;;;13.30;99.90;13.20;101089.00;;;;4993233;27;89132;-64
2023/08/11 02:02:33;;;;;;;1.80;1.57;;;13.30;99.90;13.20;101084.00;;;;4991956;28;88257;-64
2023/08/11 02:04:59;;;;;;;2.50;2.23;;;13.20;99.90;13.10;101079.00;;;;4990537;27;110165;-64
2023/08/11 02:07:24;;;;;;;2.07;1.70;;;13.20;99.90;13.10;101079.00;;;;4992349;27;109385;-64
2023/08/11 02:09:54;;;;;;;3.10;1.93;;;13.10;99.90;13.00;101081.00;;;;4987974;27;117572;-64
2023/08/11 02:12:20;;;;;;;1.87;1.67;;;13.10;99.90;13.00;101089.00;;;;4987898;27;88820;-64
2023/08/11 02:14:46;;;;;;;3.17;1.80;;;13.00;99.90;12.90;101078.00;;;;4988423;27;87933;-64
2023/08/11 02:17:11;;;;;;;3.23;2.03;;;13.00;99.90;12.90;101078.00;;;;4990307;28;107181;-64
2023/08/11 02:19:37;;;;;;;3.63;1.93;;;12.90;99.90;12.80;101081.00;;;;4986191;27;117121;-63
2023/08/11 02:22:03;;;;;;;1.73;1.63;;;12.90;99.90;12.80;101079.00;;;;4987477;27;117051;-63
2023/08/11 02:24:44;;;;;;;2.00;1.90;;;12.80;99.90;12.70;101078.00;;;;4985915;27;87987;-64
2023/08/11 02:27:10;;;;;;;4.00;1.93;;;12.80;99.90;12.70;101086.00;;;;4992296;27;108364;-63
2023/08/11 02:29:36;;;;;;;2.50;1.73;;;12.70;99.90;12.70;101082.00;;;;4991748;28;107625;-64
2023/08/11 02:32:05;;;;;;;3.73;2.67;;;12.70;99.90;12.60;101082.00;;;;4991587;27;118216;-63
2023/08/11 02:34:31;;;;;;;2.40;2.17;;;12.70;99.90;12.60;101084.00;;;;4990793;27;87819;-62
2023/08/11 02:36:57;;;;;;;4.20;2.40;;;12.60;99.90;12.60;101096.00;;;;4987511;27;90043;-64
2023/08/11 02:39:24;;;;;;;4.00;2.47;;;12.60;99.90;12.50;101094.00;;;;4988343;28;112259;-64
2023/08/11 02:41:49;;;;;;;3.27;1.83;;;12.60;99.90;12.50;101103.00;;;;4990382;28;88661;-64
2023/08/11 02:44:15;;;;;;;2.20;1.93;;;12.60;99.90;12.50;101111.00;;;;4990449;27;99432;-64
2023/08/11 02:46:41;;;;;;;2.50;2.23;;;12.50;99.90;12.40;101102.00;;;;4990707;27;96445;-64
2023/08/11 02:49:07;;;;;;;3.23;2.33;;;12.50;99.90;12.40;101105.00;;;;4986025;27;101185;-64
2023/08/11 02:51:34;;;;;;;3.13;2.13;;;12.40;99.90;12.30;101109.00;;;;4989161;27;116330;-64
2023/08/11 02:54:00;;;;;;;3.23;2.07;;;12.40;99.90;12.30;101112.00;;;;4986970;27;90207;-64
2023/08/11 02:56:26;;;;;;;2.37;1.93;;;12.30;99.90;12.30;101116.00;;;;4987364;27;87836;-64
2023/08/11 02:58:52;;;;;;;2.53;2.33;;;12.30;99.90;12.20;101105.00;;;;4989692;27;107573;-64
2023/08/11 03:01:18;;;;;;;2.67;2.37;;;12.30;99.90;12.20;101105.00;;;;4989311;27;89020;-64
2023/08/11 03:03:45;;;;;;;2.27;2.07;;;12.30;99.90;12.20;101112.00;;;;4986521;27;87988;-65
2023/08/11 03:06:10;;;;;;;2.40;2.07;;;12.20;99.90;12.10;101115.00;;;;4986660;27;93228;-64
2023/08/11 03:08:38;;;;;;;2.83;2.00;;;12.20;99.90;12.10;101121.00;;;;4989820;28;88571;-64
2023/08/11 03:11:03;;;;;;;2.77;2.53;;;12.20;99.90;12.10;101109.00;;;;4990625;27;88031;-64
2023/08/11 03:13:29;;;;;;;3.17;2.47;;;12.10;99.90;12.00;101113.00;;;;4986816;27;111366;-64
2023/08/11 03:15:55;;;;;;;4.63;1.83;;;12.10;99.90;12.00;101110.00;;;;4987021;28;109285;-65
2023/08/11 03:18:21;;;;;;;4.27;2.13;;;12.00;99.90;12.00;101116.00;;;;4989979;27;87973;-64
2023/08/11 03:20:47;;;;;;;2.37;1.97;;;12.00;99.90;11.90;101117.00;;;;4990710;27;111258;-64
2023/08/11 03:23:13;;;;;;;7.13;2.37;;;11.90;99.90;11.90;101113.00;;;;4988411;28;87904;-64
2023/08/11 03:25:40;;;;;;;3.03;2.73;;;12.00;99.90;11.90;101111.00;;;;4989047;27;88696;-64
2023/08/11 03:28:05;;;;;;;2.40;2.20;;;11.90;99.90;11.90;101120.00;;;;4982722;27;98040;-64
2023/08/11 03:30:31;;;;;;;4.90;2.20;;;11.90;99.90;11.90;101116.00;;;;4988770;27;119281;-64
2023/08/11 03:32:57;;;;;;;2.53;1.97;;;11.90;99.90;11.90;101118.00;;;;4992323;27;87880;-63
2023/08/11 03:35:23;;;;;;;4.03;1.90;;;11.90;99.90;11.90;101119.00;;;;4987778;27;88229;-64
2023/08/11 03:37:48;;;;;;;3.27;2.50;;;11.90;99.90;11.90;101126.00;;;;4989397;27;116304;-65
2023/08/11 03:40:16;;;;;;;2.67;2.40;;;12.00;99.90;11.90;101119.00;;;;4988506;27;115596;-64
2023/08/11 03:42:42;;;;;;;2.47;2.10;;;11.90;99.90;11.90;101116.00;;;;4988474;27;87645;-63
2023/08/11 03:45:12;;;;;;;2.10;2.00;;;11.90;99.90;11.90;101120.00;;;;4989387;27;87825;-64
2023/08/11 03:47:39;;;;;;;2.37;2.00;;;11.90;99.90;12.00;101111.00;;;;4992293;27;88092;-65
2023/08/11 03:50:06;;;;;;;3.37;2.33;;;12.00;99.90;12.10;101112.00;;;;4989111;27;89049;-64
2023/08/11 03:52:33;;;;;;;2.43;2.03;;;12.00;99.90;12.10;101123.00;;;;4991224;27;87933;-63
2023/08/11 03:54:58;;;;;;;4.20;2.20;;;12.10;99.90;12.20;101135.00;;;;4987218;27;102948;-64
2023/08/11 03:57:25;;;;;;;2.87;2.33;;;12.20;99.90;12.30;101127.00;;;;4982765;27;116673;-63
2023/08/11 03:59:51;;;;;;;5.77;2.73;;;12.20;99.90;12.30;101131.00;;;;4986685;27;88765;-64
2023/08/11 04:02:17;;;;;;;3.37;2.57;;;12.30;99.90;12.40;101127.00;;;;4986367;27;101793;-65
2023/08/11 04:04:44;;;;;;;2.27;1.93;;;12.30;99.90;12.40;101129.00;;;;4988567;27;88113;-64
2023/08/11 04:07:10;;;;;;;2.50;2.30;;;12.40;99.90;12.50;101130.00;;;;4984235;27;110201;-64
2023/08/11 04:09:39;;;;;;;3.83;3.00;;;12.50;99.90;12.60;101131.00;;;;4987406;27;87815;-64
2023/08/11 04:12:06;;;;;;;3.33;3.03;;;12.50;99.90;12.60;101133.00;;;;4988648;27;87798;-64
2023/08/11 04:14:32;;;;;;;2.97;2.37;;;12.60;99.90;12.70;101124.00;;;;4984066;27;88922;-65
2023/08/11 04:16:58;;;;;;;2.93;2.67;;;12.60;99.90;12.70;101127.00;;;;4988260;27;104166;-64
2023/08/11 04:19:23;;;;;;;4.53;3.00;;;12.70;99.90;12.80;101116.00;;;;4986849;27;115990;-64
2023/08/11 04:21:49;;;;;;;2.33;1.97;;;12.70;99.90;12.80;101122.00;;;;4993757;27;98772;-65
2023/08/11 04:24:17;;;;;;;2.33;2.13;;;12.80;99.90;12.90;101124.00;;;;4991091;27;107907;-64
2023/08/11 04:26:44;;;;;;;3.10;2.83;;;12.80;99.90;12.90;101127.00;;;;4985561;27;87969;-65
2023/08/11 04:29:09;;;;;;;2.30;2.10;;;12.90;99.90;13.00;101131.00;;;;4986546;27;88826;-64
2023/08/11 04:31:35;;;;;;;2.63;2.27;;;12.90;99.90;13.00;101129.00;;;;4988594;27;109634;-65
2023/08/11 04:34:01;;;;;;;2.97;2.37;;;13.00;99.90;13.10;101124.00;;;;4994147;27;87952;-65
2023/08/11 04:36:27;;;;;;;2.20;2.00;;;13.00;99.90;13.20;101140.00;;;;4990892;27;118357;-66
2023/08/11 04:38:53;;;;;;;3.50;3.20;;;13.10;99.90;13.20;101143.00;;;;4988690;27;88732;-65
2023/08/11 04:41:19;;;;;;;2.20;2.00;;;13.20;99.90;13.30;101140.00;;;;4987902;27;87577;-64
2023/08/11 04:43:44;;;;;;;2.10;1.90;;;13.20;99.90;13.40;101142.00;;;;4989517;27;87735;-64
2023/08/11 04:46:10;;;;;;;2.37;2.17;;;13.30;99.90;13.40;101129.00;;;;4990487;27;117196;-64
2023/08/11 04:48:36;;;;;;;4.20;2.73;;;13.30;99.90;13.40;101134.00;;;;4984355;27;116574;-64
2023/08/11 04:51:01;;;;;;;2.43;2.23;;;13.40;99.90;13.50;101143.00;;;;4986878;27;109374;-64
2023/08/11 04:53:27;;;;;;;2.63;2.37;;;13.40;99.90;13.50;101142.00;;;;4986453;27;108952;-64
2023/08/11 04:55:53;;;;;;;2.17;1.97;;;13.50;99.90;13.60;101144.00;;;;4985608;27;87933;-63
2023/08/11 04:58:19;;;;;;;2.80;2.57;;;13.50;99.90;13.60;101143.00;;;;4986907;27;116669;-63
2023/08/11 05:00:44;;;;;;;3.47;2.13;;;13.60;99.90;13.70;101151.00;;;;4990613;27;110672;-64
2023/08/11 05:03:10;;;;;;;3.07;2.57;;;13.60;99.90;13.70;101144.00;;;;4989691;27;108814;-63
2023/08/11 05:05:36;;;;;;;3.13;2.80;;;13.70;99.90;13.80;101151.00;;;;4987350;27;119178;-64
2023/08/11 05:08:02;;;;;;;3.40;1.83;;;13.70;99.90;13.80;101164.00;;;;4985300;27;87888;-63
2023/08/11 05:10:28;;;;;;;2.90;2.13;;;13.80;99.90;13.90;101164.00;;;;4988994;28;91162;-64
2023/08/11 05:12:54;;;;;;;5.27;2.97;;;13.80;99.90;13.90;101171.00;;;;4985535;27;109132;-63
2023/08/11 05:15:19;;;;;;;2.63;2.42;;;13.90;99.90;14.00;101164.00;;;;4985674;27;115823;-64
2023/08/11 05:17:45;;;;;;;2.87;2.20;;;13.90;99.90;14.10;101163.00;;;;4985290;27;118351;-64
2023/08/11 05:20:14;;;;;;;4.67;2.40;;;14.00;99.90;14.20;101167.00;;;;4985272;27;108928;-64
2023/08/11 05:22:40;;;;;;;2.53;1.90;;;14.10;99.90;14.20;101173.00;;;;4985931;27;88228;-64
2023/08/11 05:25:07;;;;;;;2.25;2.00;;;14.10;99.90;14.30;101179.00;;;;4986337;27;88347;-64
2023/08/11 05:27:32;;;;;;;2.70;2.47;;;14.20;99.90;14.40;101167.00;;;;4985017;27;108500;-64
2023/08/11 05:29:58;;;;;;;3.47;2.13;;;14.30;99.90;14.50;101176.00;;;;4987915;27;90520;-64
2023/08/11 05:32:24;;;;;;;4.17;2.20;;;14.40;99.90;14.60;101177.00;;;;4987717;27;104310;-64
2023/08/11 05:34:52;;;;;;;2.45;1.83;;;14.50;99.90;14.70;101182.00;;;;4984714;27;87779;-64
2023/08/11 05:37:17;;;;;;;2.22;1.88;;;14.50;99.90;14.70;101176.00;;;;4980503;27;106868;-63
2023/08/11 05:39:43;;;;;;;2.70;2.50;;;14.90;99.90;14.80;101168.00;;;;4983257;27;87886;-64
2023/08/11 05:42:09;;;;;;;2.80;2.60;;;14.70;99.90;14.90;101179.00;;;;4984450;27;107075;-63
2023/08/11 05:44:36;;;;;;;4.72;3.05;;;14.80;99.90;15.00;101181.00;;;;4982176;27;117800;-63
2023/08/11 05:47:02;;;;;;;2.83;2.63;;;14.90;99.90;15.10;101190.00;;;;4984085;27;115922;-64
2023/08/11 05:49:28;;;;;;;3.25;2.63;;;15.00;99.90;15.20;101182.00;;;;4983390;27;99153;-63
2023/08/11 05:51:54;;;;;;;2.97;2.28;;;15.10;99.90;15.30;101183.00;;;;4983952;27;109253;-63
2023/08/11 05:54:20;;;;;;;5.68;3.35;;;15.20;99.90;15.40;101178.00;;;;4983571;27;88183;-63
2023/08/11 05:56:46;;;;;;;4.78;3.75;;;15.30;99.90;15.50;101181.00;;;;4981689;27;88411;-63
2023/08/11 05:59:11;;;;;;;3.63;2.67;;;15.40;99.90;15.60;101178.00;;;;4983754;27;87896;-62
2023/08/11 06:01:37;;;;;;;2.97;2.78;;;15.40;99.90;15.80;101176.00;;;;4983096;27;107960;-64
2023/08/11 06:04:03;;;;;;;2.53;1.73;;;15.60;99.90;15.90;101177.00;;;;4979648;27;118704;-63
2023/08/11 06:06:31;;;;;;;12.50;3.45;;;15.70;99.90;16.00;101184.00;;;;4985701;28;88917;-64
2023/08/11 06:08:56;;;;;;;7.05;2.65;;;15.90;99.90;16.20;101188.00;;;;4983575;27;87029;-64
2023/08/11 06:11:22;;;;;;;1.90;1.80;;;16.00;99.90;16.40;101184.00;;;;4982719;27;89269;-64
2023/08/11 06:13:48;;;;;;;3.53;2.55;;;16.20;99.90;16.60;101187.00;;;;4982185;27;117930;-65
2023/08/11 06:16:13;;;;;;;3.17;2.28;;;16.40;99.90;16.90;101181.00;;;;4982367;28;115921;-64
2023/08/11 06:18:39;;;;;;;3.35;1.90;;;16.60;99.90;17.10;101184.00;;;;4987009;27;110697;-64
2023/08/11 06:21:05;;;;;;;4.15;2.53;;;16.90;99.90;17.40;101180.00;;;;4982052;27;108907;-64
2023/08/11 06:23:32;;;;;;;3.13;2.25;;;17.20;99.90;17.80;101189.00;;;;4982965;27;118902;-65
2023/08/11 06:25:58;;;;;;;5.40;3.03;;;17.50;99.90;18.10;101181.00;;;;4983405;27;88581;-65
2023/08/11 06:28:23;;;;;;;4.80;1.80;;;17.80;99.90;18.40;101188.00;;;;4986721;28;88286;-64
2023/08/11 06:30:49;;;;;;;2.03;1.73;;;18.00;99.90;18.60;101191.00;;;;4988067;28;99670;-64
2023/08/11 06:33:15;;;;;;;5.20;1.90;;;18.40;99.90;18.80;101203.00;;;;4985982;27;104695;-64
2023/08/11 06:35:42;;;;;;;2.65;1.92;;;18.60;99.90;18.90;101200.00;;;;4988385;27;106314;-63
2023/08/11 06:38:09;;;;;;;17.90;1.98;;;18.70;99.90;19.00;101201.00;;;;4987892;27;87839;-65
2023/08/11 06:40:36;;;;;;;2.25;1.88;;;18.80;99.90;19.00;101212.00;;;;4989921;27;89136;-63
2023/08/11 06:43:02;;;;;;;1.63;1.52;;;18.90;99.90;19.10;101212.00;;;;4984187;27;87996;-63
2023/08/11 06:45:27;;;;;;;2.10;1.38;;;19.00;99.90;19.20;101219.00;;;;4986321;27;88418;-64
2023/08/11 06:47:53;;;;;;;2.05;1.85;;;19.00;99.90;19.20;101214.00;;;;4988296;27;111186;-64
2023/08/11 06:50:22;;;;;;;1.67;1.58;;;19.10;99.90;19.40;101223.00;;;;4983791;27;109215;-64
2023/08/11 06:52:48;;;;;;;2.22;1.58;;;19.20;99.90;19.60;101224.00;;;;4983731;27;118222;-64
2023/08/11 06:55:14;;;;;;;1.27;1.10;;;19.40;99.90;19.80;101228.00;;;;4984714;27;117979;-64
2023/08/11 06:57:40;;;;;;;1.40;1.30;;;19.60;99.90;20.00;101230.00;;;;4987590;27;87201;-64
2023/08/11 07:00:07;;;;;;;2.80;2.45;;;19.80;99.90;20.20;101225.00;;;;4988922;27;109410;-65
2023/08/11 07:02:34;;;;;;;2.08;1.88;;;20.00;99.90;20.40;101229.00;;;;4990514;27;89035;-65
2023/08/11 07:05:01;;;;;;;1.60;1.45;;;20.30;99.90;20.70;101227.00;;;;4990200;27;88827;-66
2023/08/11 07:07:27;;;;;;;7.32;1.30;;;20.50;99.90;21.00;101222.00;;;;4987428;27;87912;-64
2023/08/11 07:09:52;;;;;;;1.58;1.13;;;20.80;99.90;21.40;101238.00;;;;4981814;27;108205;-64
2023/08/11 07:12:18;;;;;;;1.30;1.10;;;21.10;99.90;21.70;101234.00;;;;4984883;27;88992;-64
2023/08/11 07:14:44;;;;;;;1.42;1.33;;;21.40;99.30;22.00;101235.00;;;;4982566;27;116526;-65
2023/08/11 07:17:10;;;;;;;2.63;1.33;;;21.70;98.50;22.20;101251.00;;;;4982479;27;111096;-65
2023/08/11 07:19:36;;;;;;;2.25;1.25;;;22.00;97.20;22.40;101236.00;;;;4984179;27;87835;-64
2023/08/11 07:22:02;;;;;;;2.13;1.40;;;22.20;96.30;22.60;101248.00;;;;4986169;27;89080;-64
2023/08/11 07:24:28;;;;;;;2.80;1.50;;;22.50;95.80;22.80;101247.00;;;;4982622;27;87836;-64
2023/08/11 07:26:54;;;;;;;2.72;1.05;;;22.60;95.00;23.00;101243.00;;;;4987818;27;109780;-64
2023/08/11 07:29:19;;;;;;;2.17;1.20;;;22.80;94.20;23.10;101258.00;;;;4985375;27;108933;-64
2023/08/11 07:31:45;;;;;;;5.05;1.77;;;22.90;93.60;23.40;101257.00;;;;4987384;27;117553;-65
2023/08/11 07:34:11;;;;;;;1.42;1.17;;;23.20;93.10;23.70;101250.00;;;;4988009;27;117276;-64
2023/08/11 07:36:37;;;;;;;1.05;0.93;;;23.50;92.50;24.00;101252.00;;;;4983839;27;104281;-64
2023/08/11 07:39:05;;;;;;;2.15;1.30;;;23.80;91.90;24.30;101255.00;;;;4986784;27;87879;-64
2023/08/11 07:41:33;;;;;;;1.45;1.30;;;24.10;90.50;24.50;101259.00;;;;4985631;27;88725;-63
2023/08/11 07:43:59;;;;;;;1.67;1.27;;;24.30;88.80;24.60;101262.00;;;;4985573;27;109824;-64
2023/08/11 07:46:25;;;;;;;1.67;1.10;;;24.40;86.50;24.60;101261.00;;;;4989424;27;109140;-64
2023/08/11 07:48:50;;;;;;;1.83;0.88;;;24.50;85.40;24.80;101259.00;;;;4982013;27;108209;-64
2023/08/11 07:51:16;;;;;;;3.72;1.42;;;24.60;84.20;25.00;101261.00;;;;4985134;27;116905;-65
2023/08/11 07:53:44;;;;;;;1.75;1.27;;;24.80;82.50;25.10;101255.00;;;;4983276;27;90917;-65
2023/08/11 07:56:13;;;;;;;4.15;1.58;;;25.00;79.90;25.20;101250.00;;;;4982809;27;88855;-66
2023/08/11 07:58:39;;;;;;;1.33;0.70;;;25.00;78.10;25.30;101265.00;;;;4983563;27;88250;-65
2023/08/11 08:01:08;;;;;;;1.38;0.80;;;25.10;78.60;25.50;101262.00;;;;4982444;27;118011;-66
2023/08/11 08:03:35;;;;;;;1.55;1.15;;;25.30;78.40;25.70;101259.00;;;;4983707;27;88256;-64
2023/08/11 08:06:04;;;;;;;1.50;1.02;;;25.60;76.80;26.00;101271.00;;;;4987377;27;87967;-65
2023/08/11 08:08:31;;;;;;;0.75;0.75;;;25.80;77.20;26.30;101267.00;;;;4986856;27;88074;-66
2023/08/11 08:10:57;;;;;;;3.83;1.20;;;26.00;75.80;26.50;101256.00;;;;4986529;27;88277;-65
2023/08/11 08:13:23;;;;;;;1.08;0.95;;;26.30;74.70;26.80;101263.00;;;;4986358;27;88084;-65
2023/08/11 08:15:48;;;;;;;1.30;0.80;;;26.50;73.80;27.10;101267.00;;;;4984855;27;110669;-65
2023/08/11 08:18:14;;;;;;;1.85;0.73;;;26.80;72.00;27.40;101255.00;;;;4983615;27;109166;-66
2023/08/11 08:20:40;;;;;;;1.17;1.05;;;27.10;70.80;27.60;101265.00;;;;4984732;27;88150;-64
2023/08/11 08:23:09;;;;;;;1.27;1.17;;;27.30;68.70;27.70;101267.00;;;;4988405;27;113313;-63
2023/08/11 08:25:34;;;;;;;1.20;0.80;;;27.50;68.10;27.80;101267.00;;;;4985439;27;88054;-64
2023/08/11 08:28:00;;;;;;;1.10;0.82;;;27.60;66.80;28.00;101270.00;;;;4981830;27;108972;-64
2023/08/11 08:30:26;;;;;;;2.03;1.15;;;27.80;66.10;28.10;101267.00;;;;4982382;27;105008;-64
2023/08/11 08:32:51;;;;;;;0.88;0.80;;;27.90;64.90;28.30;101276.00;;;;4982667;27;117583;-64
2023/08/11 08:35:17;;;;;;;1.70;1.10;;;28.10;63.90;28.50;101272.00;;;;4981080;27;109487;-66
2023/08/11 08:37:43;;;;;;;2.70;0.95;;;28.30;62.60;28.70;101278.00;;;;4983321;27;108932;-67
2023/08/11 08:40:09;;;;;;;1.63;0.85;;;28.40;61.10;28.90;101277.00;;;;4979785;27;117297;-68
2023/08/11 08:42:35;;;;;;;0.73;0.73;;;28.60;60.00;29.00;101284.00;;;;4980537;27;88676;-66
2023/08/11 08:45:01;;;;;;;1.08;0.85;;;28.80;59.10;29.00;101284.00;;;;4986414;27;88065;-66
2023/08/11 08:47:26;;;;;;;0.95;0.63;;;28.80;58.60;29.20;101288.00;;;;4984697;27;109741;-67
2023/08/11 08:49:54;;;;;;;1.90;0.70;;;28.90;58.30;29.30;101283.00;;;;4982676;27;117205;-67
2023/08/11 08:52:21;;;;;;;0.82;0.77;;;29.00;57.10;29.40;101283.00;;;;4984685;27;87766;-66
2023/08/11 08:54:46;;;;;;;1.20;0.82;;;29.10;56.20;29.40;101292.00;;;;4982853;27;109031;-65
2023/08/11 08:57:12;;;;;;;0.70;0.63;;;29.20;55.60;29.30;101287.00;;;;4983834;27;109006;-66
2023/08/11 08:59:39;;;;;;;1.88;1.05;;;29.20;54.50;29.20;101283.00;;;;4986370;27;117315;-66
2023/08/11 09:02:06;;;;;;;1.13;1.00;;;29.10;54.50;29.00;101280.00;;;;4983950;27;90936;-65
2023/08/11 09:04:32;;;;;;;0.68;0.60;;;29.00;53.90;29.00;101279.00;;;;4984811;27;88751;-65
2023/08/11 09:06:59;;;;;;;0.90;0.82;;;28.80;54.10;28.90;101280.00;;;;4984902;27;92488;-67
2023/08/11 09:09:27;;;;;;;0.65;0.57;;;28.80;54.20;28.90;101277.00;;;;4985007;27;89360;-67
2023/08/11 09:11:53;;;;;;;0.98;0.93;;;28.80;54.30;29.00;101276.00;;;;4980669;27;89020;-67
2023/08/11 09:14:21;;;;;;;0.85;0.52;;;28.80;53.90;29.00;101275.00;;;;4984200;27;91669;-67
2023/08/11 09:16:47;;;;;;;1.70;0.47;;;28.80;53.60;28.90;101268.00;;;;4982241;27;88172;-67
2023/08/11 09:19:13;;;;;;;1.60;0.88;;;28.70;53.50;29.10;101275.00;;;;4980228;27;105972;-68
2023/08/11 09:21:45;;;;;;;0.63;0.60;;;28.80;53.70;29.20;101268.00;;;;4981004;27;116451;-68
2023/08/11 09:24:13;;;;;;;0.82;0.40;;;28.90;52.90;29.30;101264.00;;;;4982448;27;88067;-67
2023/08/11 09:26:46;;;;;;;1.00;0.30;;;29.30;52.70;29.50;101273.00;;;;4984012;27;87840;-67
2023/08/11 09:29:12;;;;;;;0.57;0.55;;;29.20;52.00;29.60;101266.00;;;;4981559;27;88584;-67
2023/08/11 09:31:39;;;;;;;0.65;0.45;;;29.30;51.30;29.60;101271.00;;;;4983014;27;89184;-67
2023/08/11 09:34:14;;;;;;;1.10;0.75;;;29.30;50.90;29.60;101259.00;;;;4981751;27;88112;-68
2023/08/11 09:36:42;;;;;;;0.68;0.57;;;29.30;50.90;29.80;101261.00;;;;4985253;27;87995;-67
2023/08/11 09:39:09;;;;;;;1.88;0.82;;;29.40;51.00;30.00;101264.00;;;;4980367;27;88897;-68
2023/08/11 09:41:48;;;;;;;2.20;0.75;;;29.60;49.30;29.90;101269.00;;;;4984622;27;88124;-67
2023/08/11 09:44:17;;;;;;;1.92;0.43;;;29.60;48.60;29.80;101261.00;;;;4985739;27;89094;-67
2023/08/11 09:46:44;;;;;;;0.30;0.30;;;29.60;48.60;29.60;101260.00;;;;4980619;28;87856;-68
2023/08/11 09:49:10;;;;;;;0.40;0.40;;;29.40;48.10;29.50;101266.00;;;;4987619;27;87292;-66
2023/08/11 09:51:37;;;;;;;0.52;0.30;;;29.20;48.30;29.30;101270.00;;;;4984717;27;88022;-67
2023/08/11 09:54:07;;;;;;;0.75;0.50;;;29.10;49.00;29.40;101254.00;;;;4982876;27;87975;-68
2023/08/11 09:56:38;;;;;;;1.75;0.57;;;29.00;49.30;29.60;101259.00;;;;4972081;28;89041;-66
2023/08/11 09:59:09;;;;;;;1.27;0.77;;;29.10;49.00;29.70;101260.00;;;;4981144;27;88238;-67
2023/08/11 10:01:36;;;;;;;0.40;0.35;;;29.30;48.60;29.70;101262.00;;;;4985820;27;107337;-67
2023/08/11 10:04:10;;;;;;;0.73;0.40;;;29.30;48.90;29.90;101270.00;;;;4989915;27;87857;-67
2023/08/11 10:06:48;;;;;;;0.40;0.40;;;29.40;49.50;30.30;101282.00;;;;4990596;27;87818;-67
2023/08/11 10:09:23;;;;;;;0.65;0.47;;;29.70;49.60;30.70;101269.00;;;;4987410;27;88157;-67
2023/08/11 10:11:51;;;;;;;0.30;0.30;;;30.00;49.70;31.00;101269.00;;;;4987345;27;89116;-67
2023/08/11 10:14:20;;;;;;;0.38;0.38;;;30.40;49.30;31.20;101277.00;;;;4988391;27;87160;-67
2023/08/11 10:16:46;;;;;;;1.17;0.45;;;30.60;48.80;31.30;101279.00;;;;4985206;27;103111;-67
2023/08/11 10:19:13;;;;;;;0.35;0.35;;;30.80;48.50;31.30;101279.00;;;;4984145;27;88580;-67
2023/08/11 10:21:40;;;;;;;0.30;0.30;;;30.80;48.30;31.20;101277.00;;;;4985966;27;89144;-66
2023/08/11 10:24:07;;;;;;;1.23;0.68;;;30.80;48.30;31.10;101282.00;;;;4986784;28;88095;-68
2023/08/11 10:26:33;;;;;;;5.40;0.90;;;30.70;48.30;30.80;101278.00;;;;4983371;27;87872;-68
2023/08/11 10:28:59;;;;;;;1.00;0.90;;;30.50;47.30;30.50;101283.00;;;;4982462;27;88009;-68
2023/08/11 10:31:31;;;;;;;0.40;0.40;;;30.20;47.10;30.50;101277.00;;;;4983381;27;117693;-68
2023/08/11 10:33:58;;;;;;;0.73;0.35;;;30.00;48.10;30.80;101280.00;;;;4986242;27;88057;-67
2023/08/11 10:36:26;;;;;;;10.05;0.38;;;30.20;48.10;31.10;101280.00;;;;4987725;27;89205;-67
2023/08/11 10:39:03;;;;;;;0.70;0.30;;;30.50;48.10;31.40;101284.00;;;;4990286;27;105621;-67
2023/08/11 10:41:30;;;;;;;0.57;0.22;;;30.70;47.70;31.60;101286.00;;;;4985288;27;87945;-68
2023/08/11 10:43:56;;;;;;;0.30;0.30;;;30.90;48.00;31.90;101275.00;;;;4982291;27;95517;-67